createdAt,value
2023-02-01T00:01:19.089Z,3.37
2023-02-01T00:03:46.782Z,3.12
2023-02-01T00:06:14.537Z,3.47
2023-02-01T00:08:42.350Z,3.53
2023-02-01T00:11:12.577Z,3.40
2023-02-01T00:13:42.770Z,4.12
2023-02-01T00:16:18.358Z,3.42
2023-02-01T00:18:47.700Z,3.42
2023-02-01T00:21:17.200Z,3.65
2023-02-01T00:23:45.681Z,3.22
2023-02-01T00:26:29.595Z,3.42
2023-02-01T00:28:57.399Z,2.95
2023-02-01T00:31:26.994Z,3.42
2023-02-01T00:33:56.090Z,3.30
2023-02-01T00:36:23.823Z,3.25
2023-02-01T00:38:52.347Z,3.67
2023-02-01T00:41:22.270Z,3.80
2023-02-01T00:43:51.024Z,3.47
2023-02-01T00:46:20.610Z,3.97
2023-02-01T00:48:48.340Z,3.08
2023-02-01T00:51:22.965Z,2.90
2023-02-01T00:53:50.910Z,3.20
2023-02-01T00:56:19.307Z,3.37
2023-02-01T00:58:47.327Z,3.55
2023-02-01T01:01:33.139Z,3.35
2023-02-01T01:04:01.898Z,3.42
2023-02-01T01:06:34.833Z,3.60
2023-02-01T01:09:06.361Z,3.12
2023-02-01T01:11:37.094Z,3.22
2023-02-01T01:14:06.172Z,3.72
2023-02-01T01:16:35.503Z,3.55
2023-02-01T01:19:04.645Z,4.40
2023-02-01T01:21:33.500Z,3.22
2023-02-01T01:24:01.885Z,3.58
2023-02-01T01:26:31.414Z,3.65
2023-02-01T01:29:01.305Z,3.60
2023-02-01T01:31:29.894Z,3.60
2023-02-01T01:33:59.773Z,3.75
2023-02-01T01:36:29.362Z,3.55
2023-02-01T01:38:57.105Z,4.03
2023-02-01T01:41:28.359Z,3.35
2023-02-01T01:44:06.941Z,4.03
2023-02-01T01:46:38.145Z,3.58
2023-02-01T01:49:19.025Z,3.25
2023-02-01T01:51:52.374Z,3.55
2023-02-01T01:54:25.989Z,3.83
2023-02-01T01:56:59.142Z,3.75
2023-02-01T01:59:27.889Z,3.85
2023-02-01T02:01:56.569Z,3.70
2023-02-01T02:04:25.480Z,3.95
2023-02-01T02:07:15.312Z,3.53
2023-02-01T02:09:54.680Z,3.40
2023-02-01T02:12:26.294Z,2.87
2023-02-01T02:14:54.491Z,3.67
2023-02-01T02:17:46.909Z,3.42
2023-02-01T02:20:33.582Z,3.83
2023-02-01T02:23:46.941Z,3.40
2023-02-01T02:26:32.955Z,4.18
2023-02-01T02:29:57.610Z,4.45
2023-02-01T02:32:46.809Z,3.30
2023-02-01T02:35:45.274Z,4.47
2023-02-01T02:38:12.927Z,3.62
2023-02-01T02:40:49.881Z,3.97
2023-02-01T02:44:06.345Z,4.40
2023-02-01T02:47:09.581Z,3.92
2023-02-01T02:50:18.615Z,4.30
2023-02-01T02:53:12.651Z,4.53
2023-02-01T02:55:42.605Z,4.05
2023-02-01T02:58:31.215Z,4.20
2023-02-01T03:01:17.808Z,4.40
2023-02-01T03:04:05.317Z,4.57
2023-02-01T03:06:34.925Z,4.43
2023-02-01T03:09:06.537Z,4.47
2023-02-01T03:11:53.537Z,4.78
2023-02-01T03:14:25.699Z,4.47
2023-02-01T03:17:01.627Z,4.72
2023-02-01T03:19:45.782Z,4.07
2023-02-01T03:22:17.132Z,4.72
2023-02-01T03:24:50.998Z,4.85
2023-02-01T03:27:39.445Z,4.70
2023-02-01T03:30:13.042Z,5.07
2023-02-01T03:33:03.111Z,5.25
2023-02-01T03:35:49.443Z,4.60
2023-02-01T03:38:25.694Z,5.60
2023-02-01T03:41:05.026Z,4.97
2023-02-01T03:43:39.564Z,4.87
2023-02-01T03:46:11.951Z,4.78
2023-02-01T03:48:41.515Z,4.43
2023-02-01T03:51:11.634Z,4.45
2023-02-01T03:53:42.292Z,4.80
2023-02-01T03:56:13.700Z,5.10
2023-02-01T03:58:42.071Z,5.35
2023-02-01T04:01:09.838Z,6.03
2023-02-01T04:03:37.593Z,5.70
2023-02-01T04:06:05.393Z,5.82
2023-02-01T04:08:33.049Z,5.60
2023-02-01T04:11:00.803Z,5.07
2023-02-01T04:13:28.473Z,4.47
2023-02-01T04:15:56.148Z,5.62
2023-02-01T04:18:23.824Z,5.60
2023-02-01T04:20:52.474Z,4.95
2023-02-01T04:23:20.245Z,5.43
2023-02-01T04:25:48.025Z,5.65
2023-02-01T04:28:15.716Z,5.40
2023-02-01T04:30:43.612Z,4.93
2023-02-01T04:33:11.429Z,4.07
2023-02-01T04:35:39.123Z,4.97
2023-02-01T04:38:06.795Z,5.50
2023-02-01T04:40:34.890Z,4.50
2023-02-01T04:43:03.470Z,4.97
2023-02-01T04:45:31.239Z,4.93
2023-02-01T04:47:59.032Z,5.05
2023-02-01T04:50:26.758Z,5.18
2023-02-01T04:52:54.468Z,4.87
2023-02-01T04:55:22.428Z,5.50
2023-02-01T04:57:50.111Z,5.28
2023-02-01T05:00:18.348Z,5.12
2023-02-01T05:02:45.975Z,5.25
2023-02-01T05:05:13.646Z,5.35
2023-02-01T05:07:41.316Z,5.78
2023-02-01T05:10:09.841Z,4.80
2023-02-01T05:12:56.103Z,4.70
2023-02-01T05:15:23.814Z,4.62
2023-02-01T05:17:51.501Z,5.00
2023-02-01T05:20:19.277Z,4.97
2023-02-01T05:22:47.175Z,5.15
2023-02-01T05:25:15.993Z,4.90
2023-02-01T05:27:44.103Z,4.60
2023-02-01T05:30:12.622Z,4.37
2023-02-01T05:32:40.254Z,4.72
2023-02-01T05:35:08.567Z,5.55
2023-02-01T05:37:36.461Z,4.65
2023-02-01T05:40:04.432Z,5.32
2023-02-01T05:42:32.138Z,4.55
2023-02-01T05:44:59.844Z,5.32
2023-02-01T05:47:27.547Z,4.65
2023-02-01T05:49:55.333Z,4.60
2023-02-01T05:52:23.010Z,4.55
2023-02-01T05:54:50.976Z,4.35
2023-02-01T05:57:18.666Z,5.03
2023-02-01T05:59:50.743Z,5.00
2023-02-01T06:02:18.838Z,4.60
2023-02-01T06:04:46.551Z,4.55
2023-02-01T06:07:14.385Z,4.72
2023-02-01T06:09:42.163Z,4.25
2023-02-01T06:12:10.330Z,4.15
2023-02-01T06:14:39.238Z,4.47
2023-02-01T06:17:08.420Z,4.78
2023-02-01T06:19:36.099Z,4.47
2023-02-01T06:22:03.852Z,5.43
2023-02-01T06:24:31.636Z,4.07
2023-02-01T06:26:59.293Z,4.55
2023-02-01T06:29:28.670Z,4.50
2023-02-01T06:31:56.502Z,4.68
2023-02-01T06:34:25.131Z,5.22
2023-02-01T06:36:53.087Z,4.65
2023-02-01T06:39:20.969Z,4.60
2023-02-01T06:41:52.288Z,4.22
2023-02-01T06:44:20.018Z,4.68
2023-02-01T06:46:47.842Z,4.62
2023-02-01T06:49:15.631Z,4.97
2023-02-01T06:51:43.415Z,4.72
2023-02-01T06:54:11.298Z,4.55
2023-02-01T06:56:39.150Z,5.37
2023-02-01T06:59:07.946Z,3.97
2023-02-01T07:01:36.579Z,4.57
2023-02-01T07:04:04.995Z,4.45
2023-02-01T07:06:33.025Z,4.85
2023-02-01T07:09:02.633Z,4.87
2023-02-01T07:11:30.433Z,5.37
2023-02-01T07:13:58.387Z,5.20
2023-02-01T07:16:26.470Z,4.20
2023-02-01T07:18:55.255Z,4.10
2023-02-01T07:21:23.433Z,4.60
2023-02-01T07:23:51.150Z,4.55
2023-02-01T07:26:18.973Z,4.30
2023-02-01T07:28:46.783Z,4.87
2023-02-01T07:31:23.899Z,4.68
2023-02-01T07:33:55.052Z,4.30
2023-02-01T07:36:22.863Z,4.03
2023-02-01T07:38:50.720Z,4.30
2023-02-01T07:41:19.514Z,4.07
2023-02-01T07:43:47.660Z,5.00
2023-02-01T07:46:17.456Z,4.82
2023-02-01T07:48:45.123Z,4.62
2023-02-01T07:51:15.262Z,4.40
2023-02-01T07:53:43.721Z,4.75
2023-02-01T07:56:17.159Z,4.78
2023-02-01T07:58:45.038Z,5.80
2023-02-01T08:01:22.800Z,5.03
2023-02-01T08:03:52.660Z,5.87
2023-02-01T08:06:21.880Z,5.55
2023-02-01T08:08:51.306Z,5.47
2023-02-01T08:11:20.346Z,4.90
2023-02-01T08:13:48.535Z,4.65
2023-02-01T08:16:18.730Z,5.22
2023-02-01T08:18:47.325Z,5.00
2023-02-01T08:21:16.787Z,5.35
2023-02-01T08:23:45.209Z,5.12
2023-02-01T08:26:16.847Z,5.78
2023-02-01T08:28:47.594Z,5.75
2023-02-01T08:31:17.791Z,6.03
2023-02-01T08:33:50.154Z,7.10
2023-02-01T08:36:18.022Z,6.00
2023-02-01T08:38:45.953Z,6.25
2023-02-01T08:41:16.959Z,5.87
2023-02-01T08:43:45.288Z,6.00
2023-02-01T08:46:13.937Z,6.10
2023-02-01T08:48:42.019Z,5.72
2023-02-01T08:51:12.435Z,6.65
2023-02-01T08:53:43.310Z,6.00
2023-02-01T08:56:13.593Z,6.00
2023-02-01T08:58:41.565Z,6.18
2023-02-01T09:01:15.158Z,5.60
2023-02-01T09:03:43.284Z,6.45
2023-02-01T09:06:14.444Z,5.72
2023-02-01T09:08:42.885Z,5.50
2023-02-01T09:11:15.940Z,5.90
2023-02-01T09:13:43.869Z,5.97
2023-02-01T09:16:11.915Z,6.37
2023-02-01T09:18:50.339Z,6.70
2023-02-01T09:21:27.439Z,6.32
2023-02-01T09:23:55.194Z,5.75
2023-02-01T09:26:31.341Z,5.68
2023-02-01T09:28:59.769Z,5.75
2023-02-01T09:31:27.666Z,5.95
2023-02-01T09:33:55.470Z,5.95
2023-02-01T09:36:23.203Z,6.18
2023-02-01T09:38:53.141Z,5.00
2023-02-01T09:41:57.328Z,6.30
2023-02-01T09:44:44.149Z,5.10
2023-02-01T09:47:15.665Z,5.35
2023-02-01T09:49:59.470Z,6.00
2023-02-01T09:52:36.764Z,6.65
2023-02-01T09:55:20.789Z,5.28
2023-02-01T09:58:00.488Z,5.62
2023-02-01T10:00:32.334Z,4.87
2023-02-01T10:03:00.134Z,5.53
2023-02-01T10:05:40.661Z,5.47
2023-02-01T10:08:47.383Z,5.72
2023-02-01T10:11:23.983Z,4.37
2023-02-01T10:14:03.020Z,5.18
2023-02-01T10:16:47.921Z,4.95
2023-02-01T10:19:24.557Z,5.25
2023-02-01T10:22:04.680Z,5.15
2023-02-01T10:24:59.273Z,4.93
2023-02-01T10:27:37.550Z,4.40
2023-02-01T10:30:34.671Z,4.30
2023-02-01T10:33:34.376Z,4.10
2023-02-01T10:36:24.059Z,4.22
2023-02-01T10:38:51.986Z,4.95
2023-02-01T10:41:25.437Z,4.95
2023-02-01T10:43:57.049Z,5.07
2023-02-01T10:46:26.054Z,3.85
2023-02-01T10:48:58.533Z,4.18
2023-02-01T10:51:35.312Z,3.47
2023-02-01T10:54:11.717Z,4.72
2023-02-01T10:56:40.699Z,3.85
2023-02-01T10:59:18.264Z,3.90
2023-02-01T11:01:49.314Z,3.58
2023-02-01T11:04:21.065Z,4.07
2023-02-01T11:06:53.013Z,3.35
2023-02-01T11:09:23.814Z,3.55
2023-02-01T11:11:51.551Z,3.28
2023-02-01T11:14:28.108Z,3.78
2023-02-01T11:17:16.133Z,3.50
2023-02-01T11:19:59.011Z,3.37
2023-02-01T11:22:29.169Z,3.58
2023-02-01T11:24:57.310Z,3.20
2023-02-01T11:27:28.138Z,3.55
2023-02-01T11:30:03.702Z,3.35
2023-02-01T11:32:32.722Z,3.22
2023-02-01T11:35:09.711Z,3.12
2023-02-01T11:37:45.017Z,3.15
2023-02-01T11:40:18.513Z,2.65
2023-02-01T11:42:56.939Z,3.00
2023-02-01T11:45:33.652Z,2.92
2023-02-01T11:48:02.612Z,2.40
2023-02-01T11:50:57.892Z,2.80
2023-02-01T11:54:02.548Z,2.65
2023-02-01T11:56:42.568Z,2.62
2023-02-01T11:59:15.896Z,3.08
2023-02-01T12:02:09.957Z,3.15
2023-02-01T12:04:57.241Z,3.25
2023-02-01T12:07:31.529Z,3.40
2023-02-01T12:10:17.597Z,2.72
2023-02-01T12:13:08.411Z,3.12
2023-02-01T12:15:54.794Z,2.75
2023-02-01T12:18:44.088Z,2.67
2023-02-01T12:21:34.954Z,2.45
2023-02-01T12:24:05.634Z,2.78
2023-02-01T12:26:48.882Z,3.00
2023-02-01T12:29:25.527Z,3.35
2023-02-01T12:32:02.177Z,2.83
2023-02-01T12:34:40.838Z,2.95
2023-02-01T12:37:33.215Z,2.47
2023-02-01T12:40:10.013Z,2.58
2023-02-01T12:43:04.186Z,3.05
2023-02-01T12:45:51.607Z,2.62
2023-02-01T12:48:43.733Z,3.20
2023-02-01T12:51:19.681Z,2.72
2023-02-01T12:53:56.645Z,2.60
2023-02-01T12:56:37.376Z,2.95
2023-02-01T12:59:23.020Z,2.70
2023-02-01T13:02:00.941Z,2.65
2023-02-01T13:04:36.085Z,3.55
2023-02-01T13:07:12.001Z,3.42
2023-02-01T13:09:56.491Z,3.00
2023-02-01T13:13:02.623Z,2.70
2023-02-01T13:15:35.542Z,2.97
2023-02-01T13:18:07.382Z,3.25
2023-02-01T13:20:57.747Z,2.87
2023-02-01T13:23:32.694Z,2.97
2023-02-01T13:26:00.890Z,2.95
2023-02-01T13:28:44.861Z,2.67
2023-02-01T13:31:46.086Z,3.03
2023-02-01T13:34:44.596Z,2.55
2023-02-01T13:37:31.386Z,2.08
2023-02-01T13:40:14.345Z,2.10
2023-02-01T13:42:58.431Z,1.92
2023-02-01T13:45:31.400Z,2.05
2023-02-01T13:48:03.924Z,1.80
2023-02-01T13:50:43.704Z,2.10
2023-02-01T13:53:16.744Z,1.90
2023-02-01T13:55:58.465Z,2.28
2023-02-01T13:58:38.420Z,1.83
2023-02-01T14:01:24.374Z,2.40
2023-02-01T14:03:54.490Z,1.83
2023-02-01T14:06:28.344Z,1.62
2023-02-01T14:09:14.689Z,2.17
2023-02-01T14:11:44.694Z,1.83
2023-02-01T14:14:35.417Z,1.87
2023-02-01T14:17:03.106Z,1.80
2023-02-01T14:19:33.808Z,1.75
2023-02-01T14:22:22.977Z,1.55
2023-02-01T14:24:56.238Z,2.00
2023-02-01T14:27:27.510Z,1.95
2023-02-01T14:30:09.886Z,1.60
2023-02-01T14:32:41.259Z,2.15
2023-02-01T14:35:20.091Z,2.10
2023-02-01T14:37:52.372Z,2.00
2023-02-01T14:40:27.142Z,2.12
2023-02-01T14:42:56.572Z,2.03
2023-02-01T14:45:24.978Z,1.83
2023-02-01T14:48:08.235Z,2.20
2023-02-01T14:50:42.632Z,1.75
2023-02-01T14:53:22.480Z,1.70
2023-02-01T14:56:15.389Z,1.65
2023-02-01T14:58:49.857Z,1.50
2023-02-01T15:01:39.850Z,2.20
2023-02-01T15:04:17.249Z,1.85
2023-02-01T15:06:54.455Z,1.98
2023-02-01T15:09:23.799Z,1.87
2023-02-01T15:11:57.457Z,2.17
2023-02-01T15:14:25.472Z,2.20
2023-02-01T15:16:55.905Z,1.65
2023-02-01T15:19:28.299Z,2.33
2023-02-01T15:21:59.365Z,2.25
2023-02-01T15:24:32.334Z,2.00
2023-02-01T15:27:06.813Z,2.00
2023-02-01T15:29:35.396Z,1.90
2023-02-01T15:32:03.370Z,1.95
2023-02-01T15:34:49.913Z,2.12
2023-02-01T15:37:20.574Z,1.75
2023-02-01T15:40:14.072Z,2.28
2023-02-01T15:42:58.832Z,1.75
2023-02-01T15:45:34.432Z,1.90
2023-02-01T15:48:02.364Z,2.20
2023-02-01T15:50:33.261Z,1.50
2023-02-01T15:53:01.207Z,2.12
2023-02-01T15:55:37.754Z,1.87
2023-02-01T15:58:18.995Z,1.95
2023-02-01T16:01:09.010Z,1.90
2023-02-01T16:03:40.243Z,2.12
2023-02-01T16:06:14.532Z,2.62
2023-02-01T16:08:53.695Z,2.65
2023-02-01T16:11:32.639Z,2.75
2023-02-01T16:14:02.068Z,2.25
2023-02-01T16:16:31.506Z,2.30
2023-02-01T16:18:59.249Z,2.25
2023-02-01T16:21:27.025Z,2.33
2023-02-01T16:23:55.447Z,2.10
2023-02-01T16:26:23.385Z,2.20
2023-02-01T16:28:51.142Z,2.40
2023-02-01T16:31:23.726Z,2.55
2023-02-01T16:33:52.641Z,1.90
2023-02-01T16:36:20.894Z,2.20
2023-02-01T16:38:50.027Z,2.50
2023-02-01T16:41:19.849Z,2.20
2023-02-01T16:43:47.919Z,3.70
2023-02-01T16:46:22.719Z,2.15
2023-02-01T16:48:56.502Z,2.60
2023-02-01T16:51:26.898Z,2.60
2023-02-01T16:53:55.429Z,2.42
2023-02-01T16:56:38.260Z,2.25
2023-02-01T16:59:06.054Z,1.98
2023-02-01T17:01:33.813Z,2.53
2023-02-01T17:04:01.666Z,2.00
2023-02-01T17:06:29.973Z,1.87
2023-02-01T17:09:04.482Z,1.92
2023-02-01T17:11:32.985Z,1.90
2023-02-01T17:14:17.588Z,2.50
2023-02-01T17:16:47.983Z,2.08
2023-02-01T17:19:19.476Z,2.08
2023-02-01T17:21:54.056Z,2.28
2023-02-01T17:24:35.785Z,1.83
2023-02-01T17:27:06.855Z,2.05
2023-02-01T17:29:35.122Z,2.00
2023-02-01T17:32:06.456Z,2.10
2023-02-01T17:34:34.404Z,2.25
2023-02-01T17:37:02.511Z,2.53
2023-02-01T17:39:48.818Z,2.42
2023-02-01T17:42:16.822Z,2.28
2023-02-01T17:44:44.550Z,2.22
2023-02-01T17:47:12.365Z,2.00
2023-02-01T17:49:40.190Z,2.37
2023-02-01T17:52:10.384Z,2.15
2023-02-01T17:54:38.535Z,2.10
2023-02-01T17:57:13.636Z,1.87
2023-02-01T17:59:41.773Z,1.87
2023-02-01T18:02:23.585Z,2.12
2023-02-01T18:04:52.252Z,2.28
2023-02-01T18:07:20.137Z,1.92
2023-02-01T18:09:48.035Z,2.08
2023-02-01T18:12:24.639Z,1.98
2023-02-01T18:14:52.669Z,2.45
2023-02-01T18:17:21.447Z,1.95
2023-02-01T18:19:49.493Z,1.67
2023-02-01T18:22:20.198Z,1.75
2023-02-01T18:24:48.162Z,2.25
2023-02-01T18:27:16.140Z,2.17
2023-02-01T18:29:43.990Z,1.87
2023-02-01T18:32:12.095Z,2.55
2023-02-01T18:34:40.341Z,1.95
2023-02-01T18:37:08.194Z,2.70
2023-02-01T18:39:35.855Z,2.25
2023-02-01T18:42:03.620Z,2.37
2023-02-01T18:44:31.263Z,2.37
2023-02-01T18:47:00.097Z,3.65
2023-02-01T18:49:27.882Z,2.40
2023-02-01T18:51:55.556Z,2.40
2023-02-01T18:54:25.752Z,3.65
2023-02-01T18:56:53.547Z,2.72
2023-02-01T18:59:21.276Z,2.20
2023-02-01T19:01:49.156Z,2.92
2023-02-01T19:04:18.243Z,2.58
2023-02-01T19:06:53.915Z,2.40
2023-02-01T19:09:21.709Z,1.60
2023-02-01T19:11:49.484Z,2.65
2023-02-01T19:14:18.043Z,1.73
2023-02-01T19:16:45.810Z,1.70
2023-02-01T19:19:13.698Z,2.15
2023-02-01T19:21:41.385Z,1.98
2023-02-01T19:24:09.264Z,2.12
2023-02-01T19:26:37.018Z,1.70
2023-02-01T19:29:05.601Z,2.03
2023-02-01T19:31:33.598Z,2.30
2023-02-01T19:34:01.385Z,1.60
2023-02-01T19:36:29.679Z,1.70
2023-02-01T19:38:57.494Z,2.03
2023-02-01T19:41:25.160Z,1.98
2023-02-01T19:43:52.885Z,2.42
2023-02-01T19:46:20.747Z,2.40
2023-02-01T19:48:48.920Z,2.10
2023-02-01T19:51:16.813Z,1.90
2023-02-01T19:53:45.427Z,1.55
2023-02-01T19:56:16.235Z,1.30
2023-02-01T19:58:45.015Z,1.92
2023-02-01T20:01:12.782Z,1.70
2023-02-01T20:03:40.524Z,1.80
2023-02-01T20:06:08.535Z,2.08
2023-02-01T20:08:36.634Z,2.37
2023-02-01T20:11:08.078Z,2.17
2023-02-01T20:13:36.941Z,1.73
2023-02-01T20:16:05.124Z,2.12
2023-02-01T20:18:32.983Z,1.65
2023-02-01T20:21:00.842Z,2.40
2023-02-01T20:23:28.918Z,2.03
2023-02-01T20:26:02.944Z,2.87
2023-02-01T20:28:31.227Z,2.85
2023-02-01T20:30:59.597Z,3.00
2023-02-01T20:33:31.435Z,2.10
2023-02-01T20:35:59.606Z,1.90
2023-02-01T20:38:27.595Z,2.67
2023-02-01T20:41:03.706Z,1.62
2023-02-01T20:43:31.419Z,1.90
2023-02-01T20:45:59.282Z,2.15
2023-02-01T20:48:27.368Z,3.28
2023-02-01T20:50:56.477Z,2.17
2023-02-01T20:53:26.931Z,2.03
2023-02-01T20:56:01.522Z,2.50
2023-02-01T20:58:29.368Z,1.90
2023-02-01T21:00:57.315Z,1.95
2023-02-01T21:03:25.436Z,1.90
2023-02-01T21:05:56.359Z,1.90
2023-02-01T21:08:24.800Z,2.05
2023-02-01T21:11:03.244Z,1.60
2023-02-01T21:13:33.266Z,1.80
2023-02-01T21:16:01.025Z,1.60
2023-02-01T21:18:28.927Z,1.60
2023-02-01T21:20:56.831Z,1.58
2023-02-01T21:23:24.698Z,1.50
2023-02-01T21:25:52.373Z,1.37
2023-02-01T21:28:20.178Z,1.60
2023-02-01T21:30:47.904Z,2.10
2023-02-01T21:33:15.579Z,1.80
2023-02-01T21:35:43.461Z,1.77
2023-02-01T21:38:11.353Z,1.95
2023-02-01T21:40:39.127Z,2.42
2023-02-01T21:43:06.829Z,1.60
2023-02-01T21:45:34.845Z,1.50
2023-02-01T21:48:04.098Z,2.25
2023-02-01T21:50:31.822Z,1.87
2023-02-01T21:53:00.374Z,1.77
2023-02-01T21:55:28.054Z,2.05
2023-02-01T21:57:55.975Z,2.78
2023-02-01T22:00:25.048Z,1.40
2023-02-01T22:02:52.832Z,4.68
2023-02-01T22:05:20.730Z,3.30
2023-02-01T22:07:48.342Z,1.65
2023-02-01T22:10:16.002Z,2.75
2023-02-01T22:12:43.705Z,1.45
2023-02-01T22:15:11.882Z,1.85
2023-02-01T22:17:39.614Z,2.22
2023-02-01T22:20:07.754Z,1.80
2023-02-01T22:22:35.417Z,1.62
2023-02-01T22:25:03.066Z,1.58
2023-02-01T22:28:30.218Z,1.80
2023-02-01T22:30:18.903Z,2.00
2023-02-01T22:32:46.660Z,2.00
2023-02-01T22:35:14.562Z,1.37
2023-02-01T22:37:43.237Z,1.67
2023-02-01T22:40:12.308Z,1.52
2023-02-01T22:42:40.066Z,1.90
2023-02-01T22:45:08.423Z,2.05
2023-02-01T22:47:36.183Z,3.12
2023-02-01T22:50:03.894Z,1.83
2023-02-01T22:52:31.907Z,2.05
2023-02-01T22:54:59.620Z,1.90
2023-02-01T22:57:27.431Z,2.12
2023-02-01T22:59:55.153Z,1.87
2023-02-01T23:02:22.998Z,1.70
2023-02-01T23:04:50.724Z,1.65
2023-02-01T23:07:18.479Z,1.98
2023-02-01T23:09:46.179Z,1.90
2023-02-01T23:12:13.795Z,2.20
2023-02-01T23:15:01.427Z,1.80
2023-02-01T23:17:29.432Z,1.92
2023-02-01T23:19:57.322Z,1.60
2023-02-01T23:22:25.074Z,2.00
2023-02-01T23:24:52.771Z,2.00
2023-02-01T23:27:20.486Z,1.35
2023-02-01T23:29:48.230Z,2.03
2023-02-01T23:32:18.261Z,2.12
2023-02-01T23:34:46.030Z,1.62
2023-02-01T23:37:13.821Z,1.77
2023-02-01T23:39:41.640Z,1.65
2023-02-01T23:42:09.341Z,1.67
2023-02-01T23:44:37.106Z,1.75
2023-02-01T23:47:05.017Z,1.58
2023-02-01T23:49:32.719Z,1.40
2023-02-01T23:52:00.449Z,1.95
2023-02-01T23:54:28.090Z,1.92
2023-02-01T23:56:58.369Z,2.33
2023-02-01T23:59:27.722Z,2.75
